Time;durP1;ratioP1;P1;durP2;ratioP2;P2;SDS_P1;SDS_P2;PMS_P1;PMS_P2;Temp;Humidity;BMP_temperature;BMP_pressure;BME280_temperature;BME280_humidity;BME280_pressure;Samples;Min_cycle;Max_cycle;Signal;HPM_P1;HPM_P2
2024/03/08 00:01:47;;;;;;;8.35;6.53;;;18.80;56.60;;;;;;5019829;28;20048;-64
2024/03/08 00:04:15;;;;;;;9.88;7.18;;;18.80;56.50;;;;;;5023968;28;20029;-66
2024/03/08 00:06:40;;;;;;;7.13;6.00;;;18.80;56.60;;;;;;5007543;28;20037;-65
2024/03/08 00:09:07;;;;;;;6.63;5.93;;;18.80;56.50;;;;;;5014164;28;20209;-65
2024/03/08 00:11:35;;;;;;;9.50;6.43;;;18.80;56.50;;;;;;5019500;28;20037;-66
2024/03/08 00:14:01;;;;;;;7.85;5.95;;;18.80;56.40;;;;;;5020184;28;20439;-63
2024/03/08 00:16:27;;;;;;;8.60;5.82;;;18.80;56.50;;;;;;5012557;28;20025;-66
2024/03/08 00:18:52;;;;;;;7.85;6.07;;;18.80;56.50;;;;;;5011912;28;20512;-67
2024/03/08 00:21:18;;;;;;;8.10;6.45;;;18.80;56.50;;;;;;5023890;28;20029;-67
2024/03/08 00:23:43;;;;;;;9.43;6.80;;;18.80;56.50;;;;;;5024428;28;20041;-65
2024/03/08 00:26:09;;;;;;;8.38;6.25;;;18.80;56.50;;;;;;5015918;28;20030;-66
2024/03/08 00:28:34;;;;;;;7.30;5.57;;;18.80;56.50;;;;;;5019662;28;20119;-66
2024/03/08 00:31:00;;;;;;;7.30;5.97;;;18.80;56.50;;;;;;5021424;28;20395;-67
2024/03/08 00:33:27;;;;;;;7.70;5.82;;;18.80;56.40;;;;;;5019939;28;20054;-66
2024/03/08 00:35:53;;;;;;;6.88;5.88;;;18.80;56.40;;;;;;5025953;28;20069;-66
2024/03/08 00:38:19;;;;;;;7.53;5.80;;;18.80;56.40;;;;;;5021109;28;20028;-67
2024/03/08 00:40:45;;;;;;;7.53;5.85;;;18.80;56.40;;;;;;5024259;28;20405;-66
2024/03/08 00:43:10;;;;;;;7.63;6.07;;;18.80;56.40;;;;;;5022044;28;20095;-66
2024/03/08 00:45:36;;;;;;;6.82;6.00;;;18.80;56.40;;;;;;5024007;28;20512;-66
2024/03/08 00:48:03;;;;;;;7.20;5.80;;;18.80;56.40;;;;;;5014935;28;21015;-67
2024/03/08 00:50:28;;;;;;;6.53;5.70;;;18.80;56.40;;;;;;5023885;28;20053;-67
2024/03/08 00:52:54;;;;;;;6.55;5.68;;;18.80;56.40;;;;;;5022481;28;20061;-66
2024/03/08 00:55:19;;;;;;;6.40;5.45;;;18.80;56.40;;;;;;5023162;28;20408;-67
2024/03/08 00:57:45;;;;;;;6.57;5.22;;;18.80;56.50;;;;;;5020775;28;20117;-66
2024/03/08 01:00:12;;;;;;;7.50;5.80;;;18.80;56.40;;;;;;5023200;28;20104;-66
2024/03/08 01:02:38;;;;;;;6.97;5.35;;;18.80;56.30;;;;;;5022823;28;20096;-66
2024/03/08 01:05:07;;;;;;;6.68;5.50;;;18.80;56.40;;;;;;5023568;28;20038;-66
2024/03/08 01:07:34;;;;;;;6.80;5.57;;;18.70;56.40;;;;;;5023232;28;20045;-66
2024/03/08 01:10:00;;;;;;;7.55;5.68;;;18.70;56.60;;;;;;5021213;28;20033;-67
2024/03/08 01:12:26;;;;;;;5.95;5.25;;;18.70;56.70;;;;;;5026899;28;20091;-66
2024/03/08 01:14:51;;;;;;;6.60;5.10;;;18.60;56.70;;;;;;5023093;28;20044;-67
2024/03/08 01:17:17;;;;;;;6.65;5.95;;;18.60;56.80;;;;;;5024579;28;20068;-66
2024/03/08 01:19:44;;;;;;;6.20;5.13;;;18.50;56.90;;;;;;5023452;28;20102;-67
2024/03/08 01:22:10;;;;;;;11.63;5.90;;;18.50;56.90;;;;;;5024103;28;20459;-67
2024/03/08 01:24:36;;;;;;;6.22;5.57;;;18.50;57.00;;;;;;5023044;28;20050;-66
2024/03/08 01:27:02;;;;;;;5.97;5.38;;;18.50;57.10;;;;;;5019511;28;20033;-67
2024/03/08 01:29:29;;;;;;;6.75;6.05;;;18.40;57.10;;;;;;5023880;28;20044;-66
2024/03/08 01:31:56;;;;;;;5.82;5.22;;;18.40;57.20;;;;;;5023667;28;20029;-67
2024/03/08 01:34:22;;;;;;;7.10;6.03;;;18.40;57.20;;;;;;5021938;28;20129;-67
2024/03/08 01:36:49;;;;;;;7.05;5.28;;;18.40;57.20;;;;;;5023056;28;20500;-67
2024/03/08 01:39:14;;;;;;;6.88;5.57;;;18.40;57.20;;;;;;5021928;28;20036;-67
2024/03/08 01:41:40;;;;;;;6.80;6.07;;;18.40;57.20;;;;;;5025789;28;20028;-66
2024/03/08 01:44:07;;;;;;;6.53;5.78;;;18.40;57.20;;;;;;5021851;28;20405;-66
2024/03/08 01:46:34;;;;;;;6.28;5.45;;;18.40;57.10;;;;;;5022569;28;20022;-66
2024/03/08 01:49:05;;;;;;;6.03;5.18;;;18.40;57.60;;;;;;5021069;28;20029;-66
2024/03/08 01:51:31;;;;;;;6.25;5.38;;;18.50;56.80;;;;;;5025670;28;20032;-66
2024/03/08 01:54:00;;;;;;;6.78;5.78;;;18.50;56.70;;;;;;5025472;28;20412;-66
2024/03/08 01:56:26;;;;;;;7.03;5.63;;;18.50;56.50;;;;;;5030706;28;20029;-66
2024/03/08 01:58:52;;;;;;;6.50;5.65;;;18.60;56.50;;;;;;5027169;28;20068;-66
2024/03/08 02:01:19;;;;;;;5.03;4.63;;;18.70;56.30;;;;;;5027832;28;20025;-66
2024/03/08 02:03:44;;;;;;;7.88;6.28;;;18.80;56.20;;;;;;5020613;28;20590;-67
2024/03/08 02:06:14;;;;;;;6.32;5.25;;;18.80;56.00;;;;;;5026514;28;20037;-66
2024/03/08 02:08:41;;;;;;;5.80;5.03;;;18.90;55.90;;;;;;5024028;28;20060;-66
2024/03/08 02:11:07;;;;;;;5.30;4.80;;;19.00;55.80;;;;;;5028034;28;20041;-67
2024/03/08 02:13:34;;;;;;;5.53;4.85;;;19.00;55.60;;;;;;5025691;28;20025;-67
2024/03/08 02:16:00;;;;;;;5.97;5.38;;;19.00;55.50;;;;;;5025239;28;20068;-67
2024/03/08 02:18:27;;;;;;;5.97;5.38;;;19.10;55.50;;;;;;5027707;28;20106;-67
2024/03/08 02:20:53;;;;;;;7.45;5.28;;;19.20;55.30;;;;;;5024752;28;20029;-67
2024/03/08 02:23:19;;;;;;;6.13;5.10;;;19.20;55.20;;;;;;5026405;28;20116;-67
2024/03/08 02:25:45;;;;;;;6.35;5.60;;;19.20;55.20;;;;;;5024419;28;20053;-67
2024/03/08 02:28:12;;;;;;;6.60;5.05;;;19.30;55.10;;;;;;5026205;28;20025;-67
2024/03/08 02:30:38;;;;;;;5.22;4.60;;;19.30;55.00;;;;;;5023902;28;20515;-67
2024/03/08 02:33:07;;;;;;;5.63;4.90;;;19.40;55.00;;;;;;5025514;28;20041;-67
2024/03/08 02:35:33;;;;;;;6.28;5.18;;;19.40;55.00;;;;;;5026743;28;20030;-67
2024/03/08 02:37:59;;;;;;;5.63;4.88;;;19.40;55.00;;;;;;5024609;28;20034;-67
2024/03/08 02:40:25;;;;;;;5.85;5.00;;;19.40;54.90;;;;;;5024173;28;20136;-67
2024/03/08 02:42:50;;;;;;;5.40;4.90;;;19.40;54.80;;;;;;5028613;28;20200;-67
2024/03/08 02:45:16;;;;;;;6.07;5.22;;;19.50;54.90;;;;;;5014826;28;20615;-68
2024/03/08 02:47:41;;;;;;;5.60;5.05;;;19.50;54.90;;;;;;5023212;28;20121;-67
2024/03/08 02:50:09;;;;;;;5.82;5.22;;;19.50;54.80;;;;;;5023188;28;20076;-67
2024/03/08 02:52:35;;;;;;;5.38;4.82;;;19.50;54.80;;;;;;5024472;28;20116;-67
2024/03/08 02:55:06;;;;;;;5.90;5.35;;;19.50;54.90;;;;;;5023213;28;20120;-66
2024/03/08 02:57:31;;;;;;;6.80;5.65;;;19.50;54.90;;;;;;5026375;28;20063;-67
2024/03/08 02:59:59;;;;;;;5.45;4.95;;;19.50;54.90;;;;;;5017972;28;20069;-66
2024/03/08 03:02:26;;;;;;;5.32;4.82;;;19.40;54.90;;;;;;5022601;28;20037;-67
2024/03/08 03:04:52;;;;;;;6.13;5.00;;;19.40;54.90;;;;;;5017103;28;20124;-67
2024/03/08 03:07:17;;;;;;;4.70;4.30;;;19.40;55.00;;;;;;5019162;28;20559;-67
2024/03/08 03:09:43;;;;;;;5.40;4.88;;;19.40;55.00;;;;;;5020466;28;20030;-67
2024/03/08 03:12:08;;;;;;;6.00;5.40;;;19.40;55.10;;;;;;5017230;28;20160;-67
2024/03/08 03:14:38;;;;;;;5.47;4.97;;;19.30;55.10;;;;;;5023927;28;20110;-67
2024/03/08 03:17:04;;;;;;;6.35;5.75;;;19.30;55.20;;;;;;5019968;28;20037;-67
2024/03/08 03:19:30;;;;;;;5.95;5.35;;;19.30;55.20;;;;;;5023960;28;20563;-68
2024/03/08 03:21:55;;;;;;;6.00;5.40;;;19.30;55.30;;;;;;5022288;28;20037;-67
2024/03/08 03:24:21;;;;;;;5.03;4.50;;;19.20;55.40;;;;;;5025692;28;20047;-67
2024/03/08 03:26:48;;;;;;;6.22;5.57;;;19.20;55.50;;;;;;5026230;28;20076;-67
2024/03/08 03:29:15;;;;;;;5.45;4.95;;;19.10;55.50;;;;;;5024323;28;20030;-67
2024/03/08 03:31:40;;;;;;;5.85;5.28;;;19.10;55.60;;;;;;5023456;28;20040;-67
2024/03/08 03:34:08;;;;;;;6.15;5.50;;;19.10;55.70;;;;;;5022522;28;20033;-67
2024/03/08 03:36:35;;;;;;;5.65;5.15;;;19.10;55.80;;;;;;5023788;28;20101;-67
2024/03/08 03:39:12;;;;;;;6.07;5.47;;;19.10;55.90;;;;;;5024270;28;20036;-67
2024/03/08 03:41:38;;;;;;;6.20;5.60;;;19.00;55.90;;;;;;5023289;28;20030;-67
2024/03/08 03:44:05;;;;;;;6.20;5.45;;;19.00;56.00;;;;;;5023116;28;20038;-65
2024/03/08 03:46:30;;;;;;;5.97;5.35;;;19.00;56.30;;;;;;5024234;28;20033;-68
2024/03/08 03:48:56;;;;;;;6.28;5.43;;;18.90;56.00;;;;;;5027724;28;20492;-67
2024/03/08 03:51:21;;;;;;;6.95;5.95;;;18.90;56.10;;;;;;5023096;28;20041;-67
2024/03/08 03:53:47;;;;;;;5.82;5.25;;;18.90;56.10;;;;;;5024003;28;20050;-67
2024/03/08 03:56:12;;;;;;;6.38;5.70;;;18.90;56.20;;;;;;5012866;28;20137;-66
2024/03/08 03:58:39;;;;;;;5.82;5.22;;;18.90;56.20;;;;;;5010405;28;20025;-66
2024/03/08 04:01:05;;;;;;;6.13;5.53;;;18.80;56.30;;;;;;5020547;28;20662;-67
2024/03/08 04:03:30;;;;;;;7.13;6.25;;;18.80;56.30;;;;;;5019820;28;20030;-67
2024/03/08 04:05:56;;;;;;;5.57;5.05;;;18.80;56.30;;;;;;5021311;28;20556;-67
2024/03/08 04:08:23;;;;;;;6.20;5.60;;;18.80;56.40;;;;;;5021032;28;20029;-67
2024/03/08 04:10:49;;;;;;;6.28;5.68;;;18.70;56.40;;;;;;5022528;28;20033;-67
2024/03/08 04:13:15;;;;;;;7.82;6.10;;;18.70;56.40;;;;;;5025130;28;20040;-67
2024/03/08 04:15:41;;;;;;;6.22;5.63;;;18.70;56.40;;;;;;5023483;28;20041;-67
2024/03/08 04:18:06;;;;;;;7.00;5.68;;;18.70;56.50;;;;;;5020630;28;20042;-67
2024/03/08 04:20:32;;;;;;;6.63;6.03;;;18.70;56.50;;;;;;5026287;28;20041;-67
2024/03/08 04:22:58;;;;;;;6.72;5.80;;;18.60;56.50;;;;;;5024039;28;20404;-67
2024/03/08 04:25:23;;;;;;;6.70;5.68;;;18.70;56.60;;;;;;5021407;28;20033;-67
2024/03/08 04:27:49;;;;;;;5.85;5.25;;;18.70;56.50;;;;;;5024181;28;20037;-67
2024/03/08 04:30:15;;;;;;;6.30;5.68;;;18.60;56.50;;;;;;5023281;28;20037;-67
2024/03/08 04:32:43;;;;;;;6.20;5.60;;;18.60;56.50;;;;;;5026883;28;20091;-67
2024/03/08 04:35:09;;;;;;;6.70;6.05;;;18.70;56.60;;;;;;5022493;28;20039;-66
2024/03/08 04:37:34;;;;;;;6.95;6.25;;;18.60;56.60;;;;;;5003835;28;20143;-67
2024/03/08 04:40:00;;;;;;;6.55;5.85;;;18.60;56.60;;;;;;5024816;28;20492;-67
2024/03/08 04:42:28;;;;;;;6.80;6.03;;;18.60;56.50;;;;;;5027104;28;20028;-66
2024/03/08 04:44:54;;;;;;;6.28;5.63;;;18.60;56.60;;;;;;5025691;28;20045;-66
2024/03/08 04:47:20;;;;;;;6.35;5.75;;;18.60;56.60;;;;;;5012213;28;20401;-67
2024/03/08 04:49:46;;;;;;;6.10;5.50;;;18.60;56.60;;;;;;5024214;28;20029;-66
2024/03/08 04:52:12;;;;;;;6.13;5.53;;;18.60;56.50;;;;;;5022619;28;20025;-67
2024/03/08 04:54:37;;;;;;;6.03;5.43;;;18.60;56.50;;;;;;5017128;28;20037;-67
2024/03/08 04:57:04;;;;;;;7.32;6.40;;;18.60;56.50;;;;;;5020499;28;20037;-67
2024/03/08 04:59:30;;;;;;;6.47;5.80;;;18.60;56.40;;;;;;5015790;28;20400;-66
2024/03/08 05:01:56;;;;;;;6.88;6.13;;;18.60;56.40;;;;;;5019664;28;20036;-66
2024/03/08 05:04:22;;;;;;;6.97;6.38;;;18.60;56.40;;;;;;5025365;28;20153;-66
2024/03/08 05:06:48;;;;;;;7.38;5.93;;;18.60;56.30;;;;;;5025970;28;20528;-65
2024/03/08 05:09:13;;;;;;;7.03;6.32;;;18.60;56.30;;;;;;5013053;28;20404;-67
2024/03/08 05:11:40;;;;;;;6.55;5.85;;;18.60;56.40;;;;;;5025184;28;20041;-67
2024/03/08 05:14:06;;;;;;;5.97;5.38;;;18.60;56.30;;;;;;5024249;28;20036;-66
2024/03/08 05:16:31;;;;;;;6.82;5.97;;;18.60;56.10;;;;;;5021539;28;20025;-67
2024/03/08 05:18:57;;;;;;;7.13;6.40;;;18.60;56.10;;;;;;5027378;28;20037;-67
2024/03/08 05:21:23;;;;;;;5.95;5.22;;;18.60;56.00;;;;;;5026288;28;20030;-66
2024/03/08 05:23:50;;;;;;;6.28;5.68;;;18.70;56.10;;;;;;5023135;28;20099;-66
2024/03/08 05:26:15;;;;;;;6.25;5.57;;;18.70;56.00;;;;;;5019296;28;20026;-66
2024/03/08 05:28:41;;;;;;;6.00;5.40;;;18.70;55.90;;;;;;5027281;28;20029;-67
2024/03/08 05:31:07;;;;;;;6.65;6.03;;;18.70;56.00;;;;;;5026001;28;20033;-67
2024/03/08 05:33:34;;;;;;;6.07;5.45;;;18.70;55.80;;;;;;5027479;28;20033;-67
2024/03/08 05:36:01;;;;;;;6.45;5.85;;;18.70;55.80;;;;;;5026045;28;20036;-67
2024/03/08 05:38:27;;;;;;;8.02;6.30;;;18.80;55.80;;;;;;5024034;28;20033;-67
2024/03/08 05:40:54;;;;;;;6.38;5.63;;;18.80;55.70;;;;;;5024349;28;20033;-66
2024/03/08 05:43:19;;;;;;;8.23;6.28;;;18.80;55.80;;;;;;5028623;28;20130;-67
2024/03/08 05:45:46;;;;;;;7.07;6.35;;;18.80;55.60;;;;;;5024986;28;20505;-66
2024/03/08 05:48:14;;;;;;;6.32;5.72;;;18.80;55.60;;;;;;5009046;28;20072;-67
2024/03/08 05:50:39;;;;;;;6.20;5.60;;;18.80;55.60;;;;;;5027750;28;20639;-67
2024/03/08 05:53:06;;;;;;;6.25;5.65;;;18.90;55.50;;;;;;5026060;28;20117;-65
2024/03/08 05:55:34;;;;;;;7.07;6.38;;;18.90;55.50;;;;;;5021560;28;20489;-67
2024/03/08 05:58:01;;;;;;;6.40;5.72;;;18.90;55.40;;;;;;5027105;28;20561;-67
2024/03/08 06:00:26;;;;;;;7.30;5.90;;;18.90;55.40;;;;;;5026919;28;20040;-67
2024/03/08 06:02:52;;;;;;;6.15;5.50;;;18.90;55.30;;;;;;5028325;28;20407;-67
2024/03/08 06:05:18;;;;;;;7.30;6.35;;;18.90;56.00;;;;;;5007993;28;20515;-66
2024/03/08 06:07:44;;;;;;;6.53;5.90;;;19.00;55.40;;;;;;5026924;28;20495;-66
2024/03/08 06:10:12;;;;;;;7.13;6.18;;;19.00;55.40;;;;;;5023489;28;20037;-67
2024/03/08 06:12:41;;;;;;;7.47;6.03;;;19.00;55.20;;;;;;5028863;28;20041;-67
2024/03/08 06:15:10;;;;;;;6.45;5.85;;;19.00;55.30;;;;;;5023837;28;20033;-67
2024/03/08 06:17:36;;;;;;;7.20;6.22;;;19.00;55.20;;;;;;5008676;28;20100;-67
2024/03/08 06:20:03;;;;;;;6.70;5.90;;;19.00;55.10;;;;;;5029179;28;20036;-67
2024/03/08 06:22:30;;;;;;;6.82;6.15;;;19.00;55.10;;;;;;5020784;28;20025;-67
2024/03/08 06:24:56;;;;;;;6.18;5.57;;;19.10;55.10;;;;;;5026433;28;20041;-67
2024/03/08 06:27:21;;;;;;;6.78;6.10;;;19.10;55.10;;;;;;5025203;28;20724;-68
2024/03/08 06:29:49;;;;;;;6.05;5.45;;;19.10;55.00;;;;;;5025702;28;20064;-67
2024/03/08 06:32:15;;;;;;;6.20;5.63;;;19.10;55.00;;;;;;5024850;28;20030;-67
2024/03/08 06:34:41;;;;;;;7.05;6.05;;;19.10;55.00;;;;;;5026519;28;20040;-67
2024/03/08 06:37:06;;;;;;;6.72;6.13;;;19.10;55.00;;;;;;5025275;28;20030;-66
2024/03/08 06:39:32;;;;;;;6.35;5.68;;;19.10;55.10;;;;;;5026513;28;20084;-66
2024/03/08 06:41:57;;;;;;;7.07;6.38;;;19.10;55.10;;;;;;5027564;28;20754;-66
2024/03/08 06:44:23;;;;;;;7.07;6.38;;;19.10;55.00;;;;;;5022992;28;20090;-66
2024/03/08 06:46:49;;;;;;;6.72;6.00;;;19.10;55.00;;;;;;5027196;28;20052;-66
2024/03/08 06:49:15;;;;;;;6.35;5.75;;;19.20;55.10;;;;;;5025032;28;20037;-66
2024/03/08 06:51:41;;;;;;;6.55;5.95;;;19.20;55.00;;;;;;5028197;28;20033;-67
2024/03/08 06:54:08;;;;;;;6.88;6.18;;;19.20;55.00;;;;;;5023570;28;20030;-67
2024/03/08 06:56:37;;;;;;;8.15;6.40;;;19.20;55.00;;;;;;5026169;28;20037;-67
2024/03/08 06:59:03;;;;;;;6.47;5.82;;;19.20;54.90;;;;;;5025279;28;20029;-67
2024/03/08 07:01:34;;;;;;;7.07;6.38;;;19.20;55.00;;;;;;5030880;28;20033;-68
2024/03/08 07:03:59;;;;;;;6.85;6.10;;;19.20;54.90;;;;;;5023211;28;20033;-67
2024/03/08 07:06:25;;;;;;;6.47;5.88;;;19.20;54.90;;;;;;5020869;28;20519;-67
2024/03/08 07:08:51;;;;;;;7.22;6.50;;;19.20;55.00;;;;;;5024109;28;20029;-65
2024/03/08 07:11:18;;;;;;;6.85;6.15;;;19.20;55.00;;;;;;5022597;28;20083;-68
2024/03/08 07:13:45;;;;;;;5.95;5.43;;;19.20;54.90;;;;;;5029119;28;20680;-67
2024/03/08 07:16:11;;;;;;;7.35;6.00;;;19.20;54.90;;;;;;5022432;28;20052;-67
2024/03/08 07:18:39;;;;;;;6.43;5.82;;;19.20;54.90;;;;;;5023904;28;20053;-65
2024/03/08 07:21:05;;;;;;;7.18;6.28;;;19.20;55.00;;;;;;5025937;28;20041;-67
2024/03/08 07:24:24;;;;;;;6.50;5.90;;;19.20;55.00;;;;;;5024158;28;20033;-67
2024/03/08 07:26:20;;;;;;;6.40;5.80;;;19.20;55.00;;;;;;5008976;28;20053;-67
2024/03/08 07:28:46;;;;;;;6.68;6.07;;;19.20;54.90;;;;;;5025448;28;20057;-65
2024/03/08 07:31:26;;;;;;;6.53;5.85;;;19.20;55.10;;;;;;5004021;28;20471;-68
2024/03/08 07:33:53;;;;;;;8.23;6.32;;;19.20;55.10;;;;;;5025406;28;20683;-64
2024/03/08 07:36:19;;;;;;;6.65;6.00;;;19.20;55.00;;;;;;5008165;28;20037;-68
2024/03/08 07:38:46;;;;;;;6.70;5.85;;;19.30;55.10;;;;;;5021897;28;20026;-67
2024/03/08 07:41:12;;;;;;;7.18;6.43;;;19.20;55.00;;;;;;5023261;28;20117;-66
2024/03/08 07:43:38;;;;;;;6.03;5.43;;;19.20;55.00;;;;;;5022138;28;20022;-67
2024/03/08 07:46:03;;;;;;;7.30;5.70;;;19.20;55.00;;;;;;5026660;28;20032;-67
2024/03/08 07:48:30;;;;;;;6.90;6.20;;;19.20;55.10;;;;;;5023314;28;20574;-67
2024/03/08 07:50:56;;;;;;;6.70;5.95;;;19.30;55.10;;;;;;5019797;28;20520;-67
2024/03/08 07:53:21;;;;;;;7.10;5.75;;;19.20;55.00;;;;;;5018075;28;20041;-67
2024/03/08 07:55:47;;;;;;;7.97;5.80;;;19.20;55.10;;;;;;5019167;28;20508;-68
2024/03/08 07:58:13;;;;;;;6.70;5.50;;;19.20;55.10;;;;;;5017925;28;20033;-67
2024/03/08 08:00:38;;;;;;;6.68;5.63;;;19.20;55.10;;;;;;5018255;28;20025;-67
2024/03/08 08:03:05;;;;;;;7.28;6.57;;;19.20;55.20;;;;;;5006264;28;20060;-67
2024/03/08 08:05:35;;;;;;;7.18;6.43;;;19.20;55.30;;;;;;5016727;28;20593;-67
2024/03/08 08:08:03;;;;;;;7.00;6.30;;;19.10;55.40;;;;;;5018946;28;20041;-68
2024/03/08 08:10:28;;;;;;;8.45;6.15;;;19.00;55.40;;;;;;5020795;28;20539;-67
2024/03/08 08:12:54;;;;;;;11.60;6.18;;;19.00;55.60;;;;;;5024538;28;20025;-68
2024/03/08 08:15:20;;;;;;;7.53;6.13;;;19.00;55.60;;;;;;5022950;28;20049;-68
2024/03/08 08:17:45;;;;;;;7.78;6.47;;;18.90;55.70;;;;;;5022904;28;20029;-69
2024/03/08 08:20:13;;;;;;;7.45;6.50;;;18.90;55.80;;;;;;5021075;28;20034;-67
2024/03/08 08:22:42;;;;;;;7.63;6.47;;;18.80;55.90;;;;;;5019914;28;20026;-69
2024/03/08 08:25:08;;;;;;;9.10;6.35;;;18.80;56.00;;;;;;5022369;28;20038;-67
2024/03/08 08:27:36;;;;;;;7.00;6.30;;;18.70;56.00;;;;;;5023383;28;20079;-67
2024/03/08 08:30:02;;;;;;;7.15;6.45;;;18.70;56.20;;;;;;5023308;28;20112;-67
2024/03/08 08:32:28;;;;;;;8.38;6.47;;;18.70;56.30;;;;;;5018635;28;20088;-68
2024/03/08 08:34:53;;;;;;;8.02;6.22;;;18.60;56.30;;;;;;5019300;28;20037;-65
2024/03/08 08:37:19;;;;;;;6.90;6.20;;;18.60;56.40;;;;;;5021561;28;20045;-67
2024/03/08 08:39:44;;;;;;;7.47;6.50;;;18.60;56.50;;;;;;5013973;28;20053;-67
2024/03/08 08:42:11;;;;;;;7.93;6.35;;;18.50;56.50;;;;;;5022028;28;20026;-67
2024/03/08 08:44:36;;;;;;;7.18;6.47;;;18.50;56.50;;;;;;5023394;28;20029;-67
2024/03/08 08:47:03;;;;;;;8.60;6.65;;;18.50;56.50;;;;;;5022642;28;20661;-67
2024/03/08 08:49:30;;;;;;;7.22;6.13;;;18.60;56.50;;;;;;5020884;28;20125;-67
2024/03/08 08:51:58;;;;;;;7.45;6.68;;;18.60;56.40;;;;;;5022875;28;20040;-67
2024/03/08 08:54:24;;;;;;;8.57;6.90;;;18.60;56.30;;;;;;5021771;28;20067;-68
2024/03/08 08:56:50;;;;;;;10.75;6.78;;;18.60;56.30;;;;;;5006270;28;20067;-67
2024/03/08 08:59:19;;;;;;;7.30;6.60;;;18.70;56.30;;;;;;5020734;28;20107;-67
2024/03/08 09:01:47;;;;;;;7.00;6.30;;;18.70;56.00;;;;;;5020946;28;20033;-68
2024/03/08 09:04:12;;;;;;;10.13;6.63;;;18.80;55.90;;;;;;5026293;28;20037;-68
2024/03/08 09:06:41;;;;;;;8.07;6.60;;;18.80;55.70;;;;;;5024915;28;20076;-68
2024/03/08 09:09:09;;;;;;;8.68;7.40;;;18.90;55.60;;;;;;5025030;28;20030;-66
2024/03/08 09:11:34;;;;;;;7.78;6.93;;;19.00;55.40;;;;;;5022152;28;20064;-68
2024/03/08 09:14:01;;;;;;;7.97;7.13;;;19.10;55.20;;;;;;5024059;28;20041;-67
2024/03/08 09:16:27;;;;;;;6.90;6.20;;;19.10;55.10;;;;;;5021354;28;20104;-67
2024/03/08 09:18:53;;;;;;;7.70;6.93;;;19.20;55.00;;;;;;5023185;28;20095;-67
2024/03/08 09:21:18;;;;;;;7.88;5.85;;;19.30;54.80;;;;;;5019018;28;20369;-68
2024/03/08 09:23:44;;;;;;;6.40;5.30;;;19.30;54.80;;;;;;5020805;28;20026;-67
2024/03/08 09:26:12;;;;;;;6.85;6.15;;;19.40;54.70;;;;;;5019080;28;20398;-68
2024/03/08 09:28:38;;;;;;;10.13;6.75;;;19.50;54.50;;;;;;5022158;28;20033;-66
2024/03/08 09:31:05;;;;;;;7.45;6.40;;;19.50;54.50;;;;;;5023853;28;20040;-68
2024/03/08 09:33:31;;;;;;;7.78;6.80;;;19.50;54.60;;;;;;5018909;28;20152;-68
2024/03/08 09:35:57;;;;;;;6.43;5.78;;;19.60;54.50;;;;;;5016170;28;20402;-67
2024/03/08 09:38:24;;;;;;;7.05;5.72;;;19.60;54.40;;;;;;4997626;28;20037;-68
2024/03/08 09:40:50;;;;;;;7.78;6.22;;;19.70;54.50;;;;;;5015612;28;20107;-68
2024/03/08 09:43:18;;;;;;;6.90;6.20;;;19.80;54.40;;;;;;5015292;28;20041;-66
2024/03/08 09:45:46;;;;;;;7.68;6.50;;;19.70;54.30;;;;;;5014321;28;20201;-66
2024/03/08 09:48:12;;;;;;;7.18;5.90;;;19.70;54.30;;;;;;5014961;28;20030;-69
2024/03/08 09:50:39;;;;;;;6.88;6.18;;;19.70;54.20;;;;;;5019556;28;20030;-68
2024/03/08 09:53:08;;;;;;;7.00;6.10;;;19.70;54.30;;;;;;5021245;28;20040;-68
2024/03/08 09:55:36;;;;;;;8.88;6.57;;;19.70;54.50;;;;;;5019955;28;20037;-67
2024/03/08 10:00:50;;;;;;;10.43;7.88;;;19.60;54.60;;;;;;5021271;28;20048;-67
2024/03/08 10:03:15;;;;;;;11.77;7.78;;;19.60;54.80;;;;;;5020793;28;20030;-69
2024/03/08 10:05:41;;;;;;;10.52;7.63;;;19.60;54.80;;;;;;5022216;28;20042;-70
2024/03/08 10:08:08;;;;;;;13.00;8.07;;;19.50;54.90;;;;;;5022642;28;20109;-68
2024/03/08 10:10:34;;;;;;;14.60;8.50;;;19.50;55.00;;;;;;5020781;28;20481;-69
2024/03/08 10:13:00;;;;;;;12.60;8.38;;;19.50;55.00;;;;;;5025211;28;20481;-68
2024/03/08 10:15:29;;;;;;;15.73;8.70;;;19.40;55.10;;;;;;5027805;28;20107;-69
2024/03/08 10:17:56;;;;;;;14.50;8.88;;;19.40;55.20;;;;;;5026588;28;20037;-69
2024/03/08 10:20:23;;;;;;;17.13;10.38;;;19.40;55.30;;;;;;5022122;28;20570;-68
2024/03/08 10:22:49;;;;;;;20.65;10.93;;;19.40;55.30;;;;;;5025835;28;20037;-68
2024/03/08 10:25:14;;;;;;;21.27;11.93;;;19.40;55.50;;;;;;5008806;28;20381;-67
2024/03/08 10:27:43;;;;;;;18.48;11.80;;;19.30;55.40;;;;;;5025080;28;20436;-68
2024/03/08 10:30:14;;;;;;;27.27;12.15;;;19.30;55.50;;;;;;5027188;28;20040;-69
2024/03/08 10:32:41;;;;;;;21.98;12.73;;;19.20;55.50;;;;;;5012104;28;20045;-66
2024/03/08 10:35:08;;;;;;;21.83;12.50;;;19.20;55.60;;;;;;5020759;28;20029;-65
2024/03/08 10:37:44;;;;;;;20.80;12.10;;;19.20;55.60;;;;;;5024385;28;20037;-68
2024/03/08 10:40:15;;;;;;;21.83;12.48;;;19.20;55.60;;;;;;5024559;28;20102;-67
2024/03/08 10:42:56;;;;;;;23.00;13.13;;;19.20;55.70;;;;;;5002065;28;20512;-65
2024/03/08 10:45:34;;;;;;;20.85;12.77;;;19.20;55.80;;;;;;5022515;28;20049;-64
2024/03/08 10:48:33;;;;;;;22.90;12.73;;;19.20;55.80;;;;;;4994048;28;20091;-67
2024/03/08 10:51:01;;;;;;;19.33;12.63;;;19.20;55.90;;;;;;5022718;28;20030;-67
2024/03/08 10:53:29;;;;;;;20.20;12.63;;;19.20;55.90;;;;;;5021774;28;20366;-68
2024/03/08 10:55:57;;;;;;;22.50;12.18;;;19.10;55.70;;;;;;5009270;28;20041;-67
2024/03/08 10:58:27;;;;;;;17.83;12.38;;;19.10;55.80;;;;;;5024119;28;20493;-67
2024/03/08 11:00:56;;;;;;;19.38;12.43;;;19.10;55.90;;;;;;5024794;28;20144;-67
2024/03/08 11:03:44;;;;;;;21.92;12.27;;;19.00;55.90;;;;;;5024696;28;20034;-63
2024/03/08 11:06:30;;;;;;;18.25;11.63;;;19.00;56.00;;;;;;5025470;28;20034;-67
2024/03/08 11:08:57;;;;;;;23.35;13.40;;;18.90;56.00;;;;;;5020253;28;20033;-64
2024/03/08 11:11:31;;;;;;;18.83;11.63;;;18.90;56.10;;;;;;5021970;28;20076;-66
2024/03/08 11:14:01;;;;;;;17.20;10.25;;;18.90;56.30;;;;;;5023019;28;20128;-68
2024/03/08 11:16:27;;;;;;;20.17;11.88;;;18.80;56.30;;;;;;5021219;28;20091;-67
2024/03/08 11:19:04;;;;;;;20.80;11.90;;;18.80;56.40;;;;;;5023061;28;20026;-67
2024/03/08 11:21:33;;;;;;;19.50;12.20;;;18.70;56.40;;;;;;5022176;28;20052;-67
2024/03/08 11:24:00;;;;;;;17.63;11.48;;;18.70;56.50;;;;;;4995370;28;20029;-67
2024/03/08 11:26:26;;;;;;;17.60;12.23;;;18.70;56.60;;;;;;5021419;28;20029;-68
2024/03/08 11:28:53;;;;;;;17.95;11.77;;;18.70;56.60;;;;;;5022734;28;20732;-65
2024/03/08 11:31:21;;;;;;;20.23;11.82;;;18.70;56.60;;;;;;5022454;28;20017;-68
2024/03/08 11:33:49;;;;;;;18.05;10.35;;;18.70;56.60;;;;;;5018458;28;20041;-68
2024/03/08 11:36:24;;;;;;;16.05;11.15;;;18.70;56.60;;;;;;5019555;28;20405;-68
2024/03/08 11:38:52;;;;;;;15.15;11.27;;;18.70;56.60;;;;;;4997454;28;20112;-68
2024/03/08 11:41:19;;;;;;;19.90;11.32;;;18.70;56.50;;;;;;5007407;28;20042;-68
2024/03/08 11:43:45;;;;;;;18.27;11.25;;;18.70;56.50;;;;;;5014116;28;20028;-68
2024/03/08 11:46:12;;;;;;;18.15;11.90;;;18.70;56.40;;;;;;5023283;28;20084;-68
2024/03/08 11:48:43;;;;;;;19.40;10.88;;;18.70;56.40;;;;;;5022236;28;20025;-68
2024/03/08 11:51:11;;;;;;;18.38;10.73;;;18.80;56.50;;;;;;5020119;28;20041;-66
2024/03/08 11:53:37;;;;;;;17.63;11.55;;;18.80;56.50;;;;;;5008903;28;20125;-67
2024/03/08 11:56:07;;;;;;;20.13;11.50;;;18.80;56.40;;;;;;5022703;28;20041;-65
2024/03/08 11:58:33;;;;;;;18.42;11.43;;;18.80;56.40;;;;;;5023939;28;20044;-68
2024/03/08 12:01:16;;;;;;;15.85;10.52;;;18.80;56.30;;;;;;5023103;28;20416;-66
2024/03/08 12:03:42;;;;;;;15.43;9.52;;;18.80;56.20;;;;;;5023805;28;20526;-68
2024/03/08 12:06:13;;;;;;;19.45;11.15;;;18.80;56.20;;;;;;5020372;28;20026;-68
2024/03/08 12:08:39;;;;;;;16.88;10.00;;;18.90;56.80;;;;;;4994735;28;20378;-68
2024/03/08 12:11:04;;;;;;;14.10;9.82;;;18.90;56.20;;;;;;5020070;28;20037;-68
2024/03/08 12:13:32;;;;;;;15.60;10.27;;;18.90;56.10;;;;;;5021656;28;20037;-68
2024/03/08 12:15:58;;;;;;;15.52;10.77;;;19.00;56.10;;;;;;5022627;28;20065;-68
2024/03/08 12:18:26;;;;;;;14.20;9.70;;;19.00;56.00;;;;;;5016010;28;20033;-69
2024/03/08 12:20:52;;;;;;;13.05;10.27;;;19.00;55.90;;;;;;5023031;28;20068;-66
2024/03/08 12:23:17;;;;;;;15.10;10.10;;;19.10;55.80;;;;;;5023117;28;20484;-68
2024/03/08 12:25:43;;;;;;;15.25;9.95;;;19.10;55.80;;;;;;5023827;28;20425;-69
2024/03/08 12:28:11;;;;;;;15.38;10.35;;;19.10;55.70;;;;;;5022705;28;20124;-68
2024/03/08 12:30:47;;;;;;;15.48;10.68;;;19.20;55.70;;;;;;5020493;28;20459;-69
2024/03/08 12:33:12;;;;;;;14.30;9.27;;;19.10;55.60;;;;;;5019761;28;20037;-68
2024/03/08 12:35:38;;;;;;;16.08;10.05;;;19.20;55.60;;;;;;5015636;28;20442;-65
2024/03/08 12:38:05;;;;;;;14.65;9.45;;;19.20;55.50;;;;;;5023555;28;20040;-68
2024/03/08 12:40:34;;;;;;;15.65;10.25;;;19.30;55.50;;;;;;5022793;28;20029;-66
2024/03/08 12:43:01;;;;;;;13.60;9.68;;;19.30;55.40;;;;;;5024735;28;20053;-68
2024/03/08 12:45:26;;;;;;;15.32;9.80;;;19.30;55.40;;;;;;5019942;28;20030;-68